Dombay, Russia
Current Conditions -  °F | °C
As of 11:30 AM on Friday 24 Oct 2014 (Local Time) from URSS Reporting Station
Broken Clouds Broken Clouds  
Wind Chill: 72°   Ceiling: 14000
Heat Index: 72°   Visibility: 6mi
Dew Point: 46°   Wind: 9mph
Humidity: 41%   Direction: 140°SE
Pressure: 29.94"   Gusts: 16mph
Location:  43.29°N, 41.62°E
Report Text: URSS 240830Z 14004G07MPS 9999 BKN140 22/08 Q1014 NOSIG RMKR06/13005G09MPS QFE759 02000070 06000070
Loading
Personal Weather Stations






























Interactive Weather Map
Tropical Storm Tracking
New forecast layout! Learn more

10-Day Weather Forecast

Advertisements
Track Severe Weather on mobile